createdAt,value
2023-04-02T00:04:08.416Z,65.13
2023-04-02T00:06:46.911Z,65.06
2023-04-02T00:09:27.106Z,65.18
2023-04-02T00:18:02.052Z,65.16
2023-04-02T00:20:49.430Z,65.40
2023-04-02T00:23:21.397Z,65.09
2023-04-02T00:25:50.641Z,65.18
2023-04-02T00:28:20.055Z,65.10
2023-04-02T00:30:51.645Z,65.39
2023-04-02T00:33:22.883Z,65.23
2023-04-02T00:35:51.105Z,65.31
2023-04-02T00:38:23.413Z,65.16
2023-04-02T00:40:52.787Z,65.55
2023-04-02T00:43:21.073Z,65.33
2023-04-02T00:45:54.875Z,65.28
2023-04-02T00:48:40.915Z,65.57
2023-04-02T00:51:19.713Z,65.40
2023-04-02T00:53:50.600Z,65.64
2023-04-02T00:56:25.556Z,65.38
2023-04-02T00:58:55.129Z,65.58
2023-04-02T01:01:25.487Z,65.27
2023-04-02T01:03:58.080Z,65.57
2023-04-02T01:06:30.644Z,65.72
2023-04-02T01:09:16.905Z,65.53
2023-04-02T01:12:00.138Z,65.44
2023-04-02T01:14:42.777Z,65.60
2023-04-02T01:17:26.388Z,65.53
2023-04-02T01:20:16.877Z,65.71
2023-04-02T01:22:51.773Z,65.52
2023-04-02T01:25:28.529Z,65.73
2023-04-02T01:28:05.591Z,65.65
2023-04-02T01:30:38.275Z,65.69
2023-04-02T01:33:06.293Z,65.90
2023-04-02T01:35:38.884Z,65.77
2023-04-02T01:38:13.924Z,65.97
2023-04-02T01:40:50.890Z,66.21
2023-04-02T01:43:25.990Z,66.24
2023-04-02T01:45:56.890Z,65.87
2023-04-02T01:48:27.550Z,66.00
2023-04-02T01:50:57.563Z,65.98
2023-04-02T01:53:27.742Z,65.72
2023-04-02T01:55:57.035Z,66.02
2023-04-02T01:58:27.253Z,66.13
2023-04-02T02:01:02.536Z,66.33
2023-04-02T02:03:30.833Z,66.31
2023-04-02T02:05:59.626Z,66.41
2023-04-02T02:08:34.396Z,66.10
2023-04-02T02:11:03.176Z,66.55
2023-04-02T02:13:31.862Z,66.49
2023-04-02T02:16:04.348Z,66.04
2023-04-02T02:18:31.677Z,65.92
2023-04-02T02:21:01.090Z,66.31
2023-04-02T02:23:29.235Z,66.62
2023-04-02T02:25:56.794Z,66.67
2023-04-02T02:28:27.522Z,66.41
2023-04-02T02:31:01.522Z,66.40
2023-04-02T02:33:34.812Z,66.56
2023-04-02T02:36:05.469Z,66.46
2023-04-02T02:38:41.195Z,66.67
2023-04-02T02:41:16.623Z,66.64
2023-04-02T02:43:53.184Z,66.19
2023-04-02T02:46:24.014Z,66.28
2023-04-02T02:48:54.470Z,66.30
2023-04-02T02:51:27.891Z,66.30
2023-04-02T02:54:01.464Z,66.07
2023-04-02T02:56:31.852Z,66.13
2023-04-02T02:59:00.307Z,66.47
2023-04-02T03:01:29.234Z,66.54
2023-04-02T03:03:58.152Z,66.09
2023-04-02T03:06:25.517Z,66.14
2023-04-02T03:09:02.443Z,65.96
2023-04-02T03:11:38.600Z,66.60
2023-04-02T03:14:16.937Z,66.78
2023-04-02T03:16:47.419Z,66.34
2023-04-02T03:19:29.619Z,66.68
2023-04-02T03:22:03.058Z,66.56
2023-04-02T03:24:36.389Z,66.05
2023-04-02T03:27:11.827Z,66.45
2023-04-02T03:29:43.648Z,65.96
2023-04-02T03:32:17.328Z,66.13
2023-04-02T03:34:50.920Z,66.47
2023-04-02T03:37:22.649Z,66.24
2023-04-02T03:39:56.791Z,66.05
2023-04-02T03:42:26.133Z,67.05
2023-04-02T03:44:58.683Z,66.43
2023-04-02T03:47:34.352Z,66.98
2023-04-02T03:50:07.606Z,66.88
2023-04-02T03:52:36.905Z,66.59
2023-04-02T03:55:15.966Z,66.71
2023-04-02T03:57:51.895Z,66.68
2023-04-02T04:00:26.444Z,66.55
2023-04-02T04:02:59.179Z,66.41
2023-04-02T04:05:30.348Z,66.52
2023-04-02T04:08:02.472Z,66.47
2023-04-02T04:10:31.870Z,67.18
2023-04-02T04:13:02.480Z,66.53
2023-04-02T04:15:34.582Z,66.93
2023-04-02T04:18:10.463Z,66.60
2023-04-02T04:20:47.419Z,66.99
2023-04-02T04:23:20.017Z,67.42
2023-04-02T04:25:50.609Z,66.67
2023-04-02T04:28:26.713Z,67.05
2023-04-02T04:31:00.106Z,67.03
2023-04-02T04:33:34.605Z,67.05
2023-04-02T04:36:03.881Z,66.81
2023-04-02T04:38:33.977Z,66.56
2023-04-02T04:41:11.173Z,67.47
2023-04-02T04:43:46.663Z,67.41
2023-04-02T04:46:18.317Z,67.85
2023-04-02T04:48:52.155Z,65.54
2023-04-02T04:51:25.324Z,61.36
2023-04-02T04:53:55.333Z,59.11
2023-04-02T04:56:26.680Z,55.78
2023-04-02T04:58:58.253Z,53.01
2023-04-02T05:01:33.539Z,50.37
2023-04-02T05:04:09.280Z,47.55
2023-04-02T05:06:42.923Z,45.96
2023-04-02T05:09:16.946Z,45.52
2023-04-02T05:11:47.307Z,44.41
2023-04-02T05:14:23.756Z,42.53
2023-04-02T05:16:56.792Z,41.17
2023-04-02T05:19:28.058Z,40.47
2023-04-02T05:22:03.669Z,38.58
2023-04-02T05:24:42.160Z,38.62
2023-04-02T05:27:20.048Z,38.20
2023-04-02T05:29:52.863Z,37.89
2023-04-02T05:32:24.010Z,38.40
2023-04-02T05:34:55.054Z,39.21
2023-04-02T05:37:26.398Z,39.44
2023-04-02T05:39:56.587Z,39.91
2023-04-02T05:42:27.088Z,41.19
2023-04-02T05:45:08.528Z,42.38
2023-04-02T05:47:41.148Z,42.90
2023-04-02T05:50:20.495Z,44.34
2023-04-02T05:52:54.765Z,44.01
2023-04-02T05:55:40.075Z,44.49
2023-04-02T05:58:34.695Z,43.79
2023-04-02T06:01:12.508Z,43.28
2023-04-02T06:03:48.996Z,43.89
2023-04-02T06:06:22.921Z,44.97
2023-04-02T06:08:58.399Z,44.88
2023-04-02T06:11:30.838Z,46.17
2023-04-02T06:13:58.790Z,46.30
2023-04-02T06:16:30.966Z,46.10
2023-04-02T06:18:58.684Z,46.67
2023-04-02T06:21:26.781Z,46.71
2023-04-02T06:23:59.050Z,46.87
2023-04-02T06:26:29.907Z,47.54
2023-04-02T06:29:04.442Z,48.42
2023-04-02T06:31:38.438Z,48.48
2023-04-02T06:34:11.519Z,47.63
2023-04-02T06:36:38.624Z,47.70
2023-04-02T06:39:14.619Z,47.37
2023-04-02T06:41:41.561Z,46.87
2023-04-02T06:44:14.736Z,47.03
2023-04-02T06:46:47.021Z,46.97
2023-04-02T06:49:21.153Z,47.37
2023-04-02T06:51:53.062Z,46.73
2023-04-02T06:54:22.230Z,47.19
2023-04-02T06:56:51.496Z,47.71
2023-04-02T06:59:19.485Z,47.75
2023-04-02T07:01:54.181Z,47.31
2023-04-02T07:04:22.914Z,46.82
2023-04-02T07:06:51.250Z,47.54
2023-04-02T07:09:19.114Z,47.19
2023-04-02T07:11:48.601Z,46.75
2023-04-02T07:14:16.569Z,45.58
2023-04-02T07:16:44.678Z,46.35
2023-04-02T07:19:18.081Z,47.52
2023-04-02T07:21:45.451Z,47.29
2023-04-02T07:24:12.803Z,47.68
2023-04-02T07:26:40.246Z,48.92
2023-04-02T07:29:13.577Z,50.29
2023-04-02T07:31:40.979Z,51.52
2023-04-02T07:34:09.412Z,52.95
2023-04-02T07:36:36.521Z,52.60
2023-04-02T07:39:04.353Z,51.53
2023-04-02T07:41:31.443Z,51.32
2023-04-02T07:43:58.668Z,50.95
2023-04-02T07:46:27.108Z,50.38
2023-04-02T07:48:54.509Z,50.21
2023-04-02T07:51:23.508Z,49.70
2023-04-02T07:53:55.028Z,49.40
2023-04-02T07:56:23.646Z,49.01
2023-04-02T07:58:50.904Z,48.57
2023-04-02T08:01:19.992Z,47.88
2023-04-02T08:03:49.778Z,47.75
2023-04-02T08:06:17.754Z,47.36
2023-04-02T08:08:45.279Z,47.47
2023-04-02T08:11:12.301Z,47.31
2023-04-02T08:13:39.852Z,47.54
2023-04-02T08:16:07.665Z,47.08
2023-04-02T08:18:35.805Z,47.00
2023-04-02T08:21:06.799Z,46.25
2023-04-02T08:23:35.133Z,45.95
2023-04-02T08:26:02.464Z,46.12
2023-04-02T08:28:30.160Z,46.37
2023-04-02T08:30:57.294Z,46.66
2023-04-02T08:33:25.147Z,45.55
2023-04-02T08:35:52.107Z,46.95
2023-04-02T08:38:23.004Z,47.47
2023-04-02T08:40:52.185Z,47.18
2023-04-02T08:43:38.837Z,46.74
2023-04-02T08:46:14.637Z,46.83
2023-04-02T08:48:46.027Z,46.70
2023-04-02T08:51:22.004Z,46.89
2023-04-02T08:53:53.431Z,46.81
2023-04-02T08:56:27.225Z,46.96
2023-04-02T08:58:57.894Z,47.11
2023-04-02T09:01:36.188Z,47.85
2023-04-02T09:04:07.186Z,48.27
2023-04-02T09:06:34.771Z,47.91
2023-04-02T09:09:05.007Z,47.58
2023-04-02T09:11:41.697Z,47.59
2023-04-02T09:14:17.657Z,47.35
2023-04-02T09:16:51.561Z,46.91
2023-04-02T09:19:24.240Z,46.85
2023-04-02T09:22:06.442Z,46.66
2023-04-02T09:24:41.297Z,46.23
2023-04-02T09:27:20.937Z,45.98
2023-04-02T09:29:51.957Z,46.07
2023-04-02T09:32:27.830Z,46.15
2023-04-02T09:35:15.001Z,46.53
2023-04-02T09:38:11.865Z,46.98
2023-04-02T09:40:46.828Z,46.77
2023-04-02T09:43:16.051Z,46.94
2023-04-02T09:45:55.426Z,47.55
2023-04-02T09:48:26.168Z,47.76
2023-04-02T09:51:11.522Z,47.80
2023-04-02T09:53:44.578Z,47.86
2023-04-02T09:56:16.921Z,47.94
2023-04-02T09:58:45.306Z,47.83
2023-04-02T10:01:30.668Z,48.13
2023-04-02T10:03:59.249Z,47.91
2023-04-02T10:06:28.652Z,48.45
2023-04-02T10:08:56.468Z,48.63
2023-04-02T10:11:36.454Z,49.15
2023-04-02T10:14:12.033Z,48.92
2023-04-02T10:16:42.339Z,49.00
2023-04-02T10:19:16.939Z,49.51
2023-04-02T10:21:45.683Z,49.18
2023-04-02T10:24:14.503Z,48.60
2023-04-02T10:26:53.688Z,48.42
2023-04-02T10:30:02.793Z,48.30
2023-04-02T10:32:38.217Z,48.01
2023-04-02T10:35:16.551Z,47.92
2023-04-02T10:38:32.717Z,52.05
2023-04-02T10:41:04.812Z,53.37
2023-04-02T10:44:12.726Z,48.29
2023-04-02T10:47:00.297Z,49.91
2023-04-02T10:56:23.093Z,47.20
2023-04-02T10:59:15.806Z,47.75
2023-04-02T11:01:47.734Z,48.70
2023-04-02T11:04:22.073Z,49.53
2023-04-02T11:07:03.509Z,50.30
2023-04-02T11:09:43.814Z,50.34
2023-04-02T11:12:25.531Z,50.19
2023-04-02T11:14:56.235Z,50.64
2023-04-02T11:17:24.658Z,50.72
2023-04-02T11:19:52.923Z,50.34
2023-04-02T11:22:22.933Z,50.21
2023-04-02T11:24:56.826Z,49.44
2023-04-02T11:27:27.354Z,49.55
2023-04-02T11:30:04.092Z,49.71
2023-04-02T11:32:39.465Z,49.71
2023-04-02T11:35:37.307Z,49.82
2023-04-02T11:38:52.222Z,49.72
2023-04-02T11:41:57.524Z,49.94
2023-04-02T11:44:28.019Z,49.94
2023-04-02T11:47:16.255Z,49.62
2023-04-02T11:50:25.022Z,49.67
2023-04-02T11:52:54.634Z,49.72
2023-04-02T11:55:29.767Z,50.12
2023-04-02T11:58:38.054Z,50.37
2023-04-02T12:01:38.462Z,50.24
2023-04-02T12:04:40.135Z,50.38
2023-04-02T12:07:26.848Z,50.67
2023-04-02T12:09:57.982Z,50.42
2023-04-02T12:12:28.932Z,50.82
2023-04-02T12:14:57.678Z,50.41
2023-04-02T12:17:29.324Z,50.93
2023-04-02T12:20:01.923Z,50.87
2023-04-02T12:22:32.356Z,50.64
2023-04-02T12:25:05.285Z,50.75
2023-04-02T12:27:32.219Z,50.84
2023-04-02T12:30:12.927Z,50.90
2023-04-02T12:32:40.155Z,50.95
2023-04-02T12:35:27.957Z,50.75
2023-04-02T12:37:55.084Z,50.75
2023-04-02T12:40:22.826Z,49.93
2023-04-02T12:42:54.125Z,51.40
2023-04-02T12:45:23.706Z,49.83
2023-04-02T12:47:53.404Z,49.56
2023-04-02T12:50:23.193Z,49.18
2023-04-02T12:52:53.428Z,49.49
2023-04-02T12:55:24.334Z,49.05
2023-04-02T12:57:56.091Z,48.97
2023-04-02T13:00:36.202Z,48.96
2023-04-02T13:03:28.548Z,52.03
2023-04-02T13:05:58.061Z,50.01
2023-04-02T13:08:28.196Z,49.67
2023-04-02T13:10:58.087Z,47.55
2023-04-02T13:13:35.265Z,45.88
2023-04-02T13:16:09.695Z,47.12
2023-04-02T13:18:39.264Z,47.92
2023-04-02T13:21:27.673Z,46.93
2023-04-02T13:23:57.637Z,45.83
2023-04-02T13:26:28.328Z,46.09
2023-04-02T13:28:57.336Z,46.17
2023-04-02T13:31:24.938Z,46.25
2023-04-02T13:33:52.061Z,46.84
2023-04-02T13:36:21.156Z,46.09
2023-04-02T13:38:47.894Z,45.89
2023-04-02T13:41:22.358Z,45.58
2023-04-02T13:44:00.062Z,44.95
2023-04-02T13:46:31.580Z,44.94
2023-04-02T13:48:59.013Z,44.30
2023-04-02T13:51:36.228Z,44.00
2023-04-02T13:54:09.345Z,43.92
2023-04-02T13:56:37.213Z,43.97
2023-04-02T13:59:05.566Z,43.55
2023-04-02T14:01:33.197Z,43.92
2023-04-02T14:04:01.745Z,43.92
2023-04-02T14:06:49.335Z,44.01
2023-04-02T14:09:27.030Z,43.60
2023-04-02T14:12:01.296Z,43.39
2023-04-02T14:14:45.527Z,42.88
2023-04-02T14:17:24.765Z,43.50
2023-04-02T14:20:10.845Z,43.64
2023-04-02T14:22:52.339Z,43.71
2023-04-02T14:25:26.315Z,43.49
2023-04-02T14:28:03.095Z,43.69
2023-04-02T14:30:43.067Z,43.86
2023-04-02T14:33:20.363Z,43.44
2023-04-02T14:35:53.149Z,43.34
2023-04-02T14:38:29.872Z,43.64
2023-04-02T14:41:05.637Z,42.80
2023-04-02T14:43:43.723Z,41.54
2023-04-02T14:46:11.662Z,39.18
2023-04-02T14:48:48.124Z,40.03
2023-04-02T14:51:25.372Z,40.84
2023-04-02T14:54:06.443Z,41.70
2023-04-02T14:56:39.760Z,42.08
2023-04-02T14:59:23.469Z,43.06
2023-04-02T15:01:57.566Z,43.62
2023-04-02T15:10:29.571Z,43.31
2023-04-02T15:12:58.601Z,43.36
2023-04-02T15:15:40.297Z,43.37
2023-04-02T15:18:13.170Z,42.60
2023-04-02T15:20:48.475Z,42.99
2023-04-02T15:23:23.364Z,42.72
2023-04-02T15:26:02.533Z,42.62
2023-04-02T15:28:35.664Z,42.53
2023-04-02T15:31:11.876Z,42.19
2023-04-02T15:33:45.933Z,42.75
2023-04-02T15:36:44.319Z,43.05
2023-04-02T15:39:25.964Z,42.68
2023-04-02T15:42:04.582Z,42.83
2023-04-02T15:44:33.826Z,43.22
2023-04-02T15:47:06.335Z,43.30
2023-04-02T15:49:41.760Z,43.69
2023-04-02T15:52:13.274Z,43.58
2023-04-02T15:54:55.926Z,43.57
2023-04-02T15:57:45.862Z,43.78
2023-04-02T16:00:23.001Z,43.97
2023-04-02T16:03:18.748Z,44.32
2023-04-02T16:05:56.731Z,44.61
2023-04-02T16:08:37.275Z,44.77
2023-04-02T16:11:10.900Z,44.62
2023-04-02T16:13:40.623Z,45.14
2023-04-02T16:16:11.332Z,45.46
2023-04-02T16:18:46.515Z,45.70
2023-04-02T16:21:18.686Z,45.96
2023-04-02T16:23:45.982Z,46.33
2023-04-02T16:26:41.546Z,46.35
2023-04-02T16:29:23.569Z,46.47
2023-04-02T16:31:58.587Z,46.77
2023-04-02T16:34:36.280Z,47.14
2023-04-02T16:37:16.563Z,47.94
2023-04-02T16:39:54.447Z,48.34
2023-04-02T16:42:34.144Z,48.57
2023-04-02T16:45:24.115Z,48.70
2023-04-02T16:48:03.274Z,48.89
2023-04-02T16:50:38.742Z,49.00
2023-04-02T16:53:21.105Z,49.36
2023-04-02T16:56:12.219Z,49.58
2023-04-02T16:58:52.179Z,49.72
2023-04-02T17:01:28.078Z,49.91
2023-04-02T17:04:30.929Z,50.01
2023-04-02T17:07:05.860Z,50.44
2023-04-02T17:09:43.167Z,50.80
2023-04-02T17:12:16.513Z,50.95
2023-04-02T17:14:50.912Z,51.00
2023-04-02T17:17:21.363Z,51.30
2023-04-02T17:19:52.095Z,51.42
2023-04-02T17:22:21.750Z,51.58
2023-04-02T17:24:53.905Z,51.86
2023-04-02T17:27:28.181Z,51.95
2023-04-02T17:30:00.181Z,52.07
2023-04-02T17:32:32.517Z,52.05
2023-04-02T17:35:17.099Z,52.23
2023-04-02T17:37:51.929Z,52.39
2023-04-02T17:40:28.000Z,52.76
2023-04-02T17:43:04.712Z,52.59
2023-04-02T17:45:42.358Z,52.68
2023-04-02T17:48:19.394Z,52.77
2023-04-02T17:51:11.014Z,52.74
2023-04-02T17:53:47.412Z,52.71
2023-04-02T17:56:46.247Z,52.58
2023-04-02T17:59:26.368Z,52.74
2023-04-02T18:02:02.668Z,52.61
2023-04-02T18:04:41.653Z,52.67
2023-04-02T18:07:24.498Z,52.76
2023-04-02T18:10:02.167Z,52.86
2023-04-02T18:12:44.014Z,53.01
2023-04-02T18:15:35.797Z,53.25
2023-04-02T18:18:10.848Z,53.26
2023-04-02T18:20:43.608Z,53.30
2023-04-02T18:23:21.711Z,53.29
2023-04-02T18:25:59.654Z,53.36
2023-04-02T18:28:43.888Z,53.25
2023-04-02T18:31:20.293Z,53.44
2023-04-02T18:34:41.975Z,53.49
2023-04-02T18:37:22.992Z,53.53
2023-04-02T18:40:18.213Z,53.89
2023-04-02T18:42:55.132Z,54.02
2023-04-02T18:45:31.277Z,53.98
2023-04-02T18:48:09.160Z,54.05
2023-04-02T18:50:39.395Z,54.04
2023-04-02T18:53:14.365Z,54.16
2023-04-02T18:55:46.547Z,54.17
2023-04-02T18:58:19.266Z,54.27
2023-04-02T19:00:48.140Z,54.34
2023-04-02T19:03:22.604Z,54.46
2023-04-02T19:05:55.689Z,54.34
2023-04-02T19:08:30.614Z,54.73
2023-04-02T19:11:00.579Z,54.65
2023-04-02T19:13:27.645Z,54.85
2023-04-02T19:16:30.136Z,54.71
2023-04-02T19:19:07.339Z,54.51
2023-04-02T19:21:44.342Z,54.46
2023-04-02T19:24:28.460Z,54.48
2023-04-02T19:27:01.003Z,54.51
2023-04-02T19:29:39.420Z,54.69
2023-04-02T19:32:14.938Z,54.57
2023-04-02T19:34:49.197Z,54.57
2023-04-02T19:37:25.328Z,54.50
2023-04-02T19:40:18.326Z,54.45
2023-04-02T19:42:48.154Z,54.72
2023-04-02T19:45:29.602Z,54.67
2023-04-02T19:47:59.840Z,54.88
2023-04-02T19:50:27.219Z,54.87
2023-04-02T19:52:54.954Z,54.95
2023-04-02T19:55:23.321Z,54.72
2023-04-02T19:57:52.629Z,54.61
2023-04-02T20:00:21.634Z,54.43
2023-04-02T20:02:48.929Z,54.49
2023-04-02T20:05:16.265Z,54.48
2023-04-02T20:07:43.615Z,54.44
2023-04-02T20:10:11.140Z,54.49
2023-04-02T20:12:40.206Z,54.39
2023-04-02T20:15:08.433Z,54.43
2023-04-02T20:17:35.715Z,54.81
2023-04-02T20:20:02.913Z,55.05
2023-04-02T20:22:31.533Z,54.65
2023-04-02T20:24:58.769Z,55.11
2023-04-02T20:27:26.330Z,55.14
2023-04-02T20:29:54.555Z,55.04
2023-04-02T20:32:22.729Z,54.94
2023-04-02T20:34:49.892Z,54.97
2023-04-02T20:37:17.234Z,55.19
2023-04-02T20:39:44.135Z,55.06
2023-04-02T20:42:11.698Z,54.90
2023-04-02T20:44:38.626Z,54.76
2023-04-02T20:47:08.172Z,54.72
2023-04-02T20:49:35.299Z,54.81
2023-04-02T20:52:02.451Z,54.92
2023-04-02T20:54:29.638Z,54.97
2023-04-02T20:56:56.970Z,55.24
2023-04-02T20:59:24.157Z,55.33
2023-04-02T21:01:51.443Z,55.25
2023-04-02T21:04:20.511Z,55.32
2023-04-02T21:06:48.763Z,55.40
2023-04-02T21:09:17.914Z,55.58
2023-04-02T21:11:45.599Z,56.00
2023-04-02T21:14:13.693Z,56.66
2023-04-02T21:16:44.224Z,56.28
2023-04-02T21:19:11.749Z,56.63
2023-04-02T21:21:40.859Z,56.95
2023-04-02T21:24:09.385Z,57.22
2023-04-02T21:26:38.496Z,57.81
2023-04-02T21:29:06.281Z,58.10
2023-04-02T21:31:35.659Z,58.46
2023-04-02T21:34:03.316Z,58.39
2023-04-02T21:36:32.481Z,58.20
2023-04-02T21:39:02.267Z,58.56
2023-04-02T21:41:31.330Z,58.75
2023-04-02T21:44:04.706Z,58.55
2023-04-02T21:46:34.833Z,59.07
2023-04-02T21:49:02.363Z,58.81
2023-04-02T21:51:31.207Z,58.39
2023-04-02T21:54:00.329Z,58.63
2023-04-02T21:56:29.594Z,58.66
2023-04-02T21:58:57.021Z,58.54
2023-04-02T22:01:29.358Z,58.49
2023-04-02T22:03:58.591Z,58.36
2023-04-02T22:06:28.491Z,58.50
2023-04-02T22:08:57.166Z,58.93
2023-04-02T22:11:26.684Z,59.03
2023-04-02T22:13:54.020Z,58.79
2023-04-02T22:16:22.546Z,58.96
2023-04-02T22:18:50.807Z,59.49
2023-04-02T22:21:19.109Z,60.05
2023-04-02T22:23:46.711Z,59.85
2023-04-02T22:26:16.000Z,59.46
2023-04-02T22:28:44.836Z,59.63
2023-04-02T22:31:13.142Z,60.16
2023-04-02T22:33:41.275Z,60.18
2023-04-02T22:36:09.005Z,59.82
2023-04-02T22:38:36.758Z,60.43
2023-04-02T22:41:08.063Z,60.14
2023-04-02T22:43:36.459Z,60.69
2023-04-02T22:46:06.536Z,60.56
2023-04-02T22:48:33.978Z,59.94
2023-04-02T22:51:01.385Z,60.90
2023-04-02T22:53:28.593Z,61.43
2023-04-02T22:55:55.816Z,61.63
2023-04-02T22:58:23.852Z,61.91
2023-04-02T23:00:51.253Z,62.50
2023-04-02T23:03:22.075Z,62.66
2023-04-02T23:05:58.931Z,62.26
2023-04-02T23:08:25.996Z,62.33
2023-04-02T23:11:00.405Z,63.02
2023-04-02T23:13:27.463Z,62.65
2023-04-02T23:15:55.138Z,63.07
2023-04-02T23:18:23.513Z,63.16
2023-04-02T23:20:50.778Z,63.68
2023-04-02T23:23:17.821Z,63.94
2023-04-02T23:25:45.378Z,63.47
2023-04-02T23:28:13.424Z,63.68
2023-04-02T23:30:41.766Z,63.01
2023-04-02T23:33:09.210Z,63.13
2023-04-02T23:35:38.204Z,63.46
2023-04-02T23:38:05.251Z,63.60
2023-04-02T23:40:32.446Z,63.50
2023-04-02T23:42:59.384Z,63.32
2023-04-02T23:45:26.628Z,63.47
2023-04-02T23:47:53.648Z,63.73
2023-04-02T23:50:21.016Z,64.07
2023-04-02T23:52:49.439Z,63.78
2023-04-02T23:55:16.760Z,63.55
2023-04-02T23:57:43.720Z,63.71
